createdAt,value
2022-09-25T06:14:52.242Z,10.96
2022-09-25T06:24:51.273Z,10.95
2022-09-25T06:34:51.187Z,10.98
2022-09-25T06:44:51.310Z,11.03
2022-09-25T06:54:51.201Z,10.97
2022-09-25T07:04:51.184Z,11.05
2022-09-25T07:14:51.240Z,11.08
2022-09-25T07:24:51.191Z,11.14
2022-09-25T07:34:51.371Z,11.19
2022-09-25T07:44:51.637Z,11.14
2022-09-25T07:54:51.242Z,11.21
2022-09-25T08:04:51.297Z,11.19
2022-09-25T08:14:51.254Z,11.30
2022-09-25T08:24:51.231Z,11.38
2022-09-25T08:34:51.411Z,11.26
2022-09-25T08:45:09.382Z,11.26
2022-09-25T08:54:54.132Z,11.30
2022-09-25T09:04:51.604Z,11.34
2022-09-25T09:14:51.579Z,11.39
2022-09-25T09:24:51.844Z,11.45
2022-09-25T09:35:05.861Z,11.49
2022-09-25T09:44:51.674Z,11.65
2022-09-25T09:54:51.542Z,11.64
2022-09-25T10:04:51.578Z,11.82
2022-09-25T10:14:52.525Z,11.64
2022-09-25T10:24:51.788Z,11.77
2022-09-25T10:34:51.607Z,11.78
2022-09-25T10:44:55.654Z,11.88
2022-09-25T10:54:51.556Z,12.16
2022-09-25T11:04:51.541Z,12.30
2022-09-25T11:14:51.586Z,12.40
2022-09-25T11:24:51.623Z,12.40
2022-09-25T11:34:51.549Z,12.86
2022-09-25T11:44:51.566Z,12.77
2022-09-25T11:54:51.658Z,12.79
2022-09-25T12:04:51.683Z,13.21
2022-09-25T12:14:51.572Z,13.56
2022-09-25T12:24:51.722Z,13.98
2022-09-25T12:34:51.627Z,14.10
2022-09-25T12:44:51.747Z,14.20
2022-09-25T12:54:51.701Z,14.31
2022-09-25T13:04:51.747Z,15.58
2022-09-25T13:14:51.720Z,16.54
2022-09-25T13:24:51.630Z,15.58
2022-09-25T13:34:51.755Z,14.68
2022-09-25T13:44:51.719Z,14.23
2022-09-25T13:54:51.881Z,14.63
2022-09-25T14:04:51.880Z,15.35
2022-09-25T14:14:51.860Z,16.20
2022-09-25T14:24:51.893Z,15.93
2022-09-25T14:34:51.737Z,14.99
2022-09-25T14:44:51.799Z,14.56
2022-09-25T14:54:51.784Z,14.45
2022-09-25T15:04:52.005Z,14.77
2022-09-25T15:14:51.897Z,14.41
2022-09-25T15:24:51.949Z,14.13
2022-09-25T15:34:51.841Z,14.06
2022-09-25T15:44:52.047Z,13.95
2022-09-25T15:54:51.929Z,14.07
2022-09-25T16:04:51.948Z,14.05
2022-09-25T16:14:51.979Z,13.82
2022-09-25T16:24:52.156Z,13.57
2022-09-25T16:34:51.821Z,13.46
2022-09-25T16:44:51.886Z,13.33
2022-09-25T16:54:51.988Z,13.44
2022-09-25T17:04:52.081Z,13.06
2022-09-25T17:14:52.009Z,12.75
2022-09-25T17:24:52.081Z,12.45
2022-09-25T17:34:51.968Z,12.14
2022-09-25T17:44:52.041Z,11.91
2022-09-25T17:54:52.046Z,11.63
2022-09-25T18:04:52.141Z,11.47
2022-09-25T18:14:52.038Z,11.12
2022-09-25T18:24:52.145Z,10.94
2022-09-25T18:34:52.294Z,10.65
2022-09-25T18:44:52.233Z,10.41
2022-09-25T18:54:52.443Z,10.11
2022-09-25T19:04:52.607Z,9.85
2022-09-25T19:14:52.726Z,9.63
